createdAt,value
2018-05-13T00:01:38.401Z,17.90
2018-05-13T00:04:06.164Z,17.80
2018-05-13T00:06:33.773Z,17.90
2018-05-13T00:09:01.327Z,17.90
2018-05-13T00:11:28.904Z,17.90
2018-05-13T00:13:57.314Z,18.20
2018-05-13T00:16:24.979Z,18.10
2018-05-13T00:18:52.609Z,18.20
2018-05-13T00:21:21.138Z,18.00
2018-05-13T00:23:48.885Z,18.00
2018-05-13T00:26:16.469Z,18.10
2018-05-13T00:28:44.102Z,17.80
2018-05-13T00:31:11.762Z,17.90
2018-05-13T00:33:39.310Z,17.90
2018-05-13T00:36:06.980Z,17.70
2018-05-13T00:38:34.542Z,17.50
2018-05-13T00:41:02.140Z,17.80
2018-05-13T00:43:29.757Z,17.80
2018-05-13T00:45:57.334Z,17.90
2018-05-13T00:48:24.976Z,17.90
2018-05-13T00:50:52.526Z,17.90
2018-05-13T00:53:20.198Z,17.60
2018-05-13T00:55:47.830Z,17.60
2018-05-13T00:58:16.244Z,17.60
2018-05-13T01:00:43.816Z,17.60
2018-05-13T01:03:11.397Z,17.60
2018-05-13T01:05:39.016Z,17.50
2018-05-13T01:08:06.668Z,17.50
2018-05-13T01:10:34.306Z,17.20
2018-05-13T01:13:02.650Z,17.30
2018-05-13T01:15:30.214Z,17.30
2018-05-13T01:17:57.769Z,17.40
2018-05-13T01:20:25.345Z,17.50
2018-05-13T01:22:53.757Z,17.30
2018-05-13T01:25:21.353Z,17.30
2018-05-13T01:27:49.015Z,17.30
2018-05-13T01:30:16.593Z,17.50
2018-05-13T01:32:44.157Z,17.60
2018-05-13T01:35:11.729Z,17.60
2018-05-13T01:37:40.183Z,17.50
2018-05-13T01:40:07.853Z,17.50
2018-05-13T01:42:36.141Z,17.40
2018-05-13T01:45:04.545Z,17.40
2018-05-13T01:47:32.063Z,17.40
2018-05-13T01:50:00.482Z,17.30
2018-05-13T01:52:28.039Z,17.30
2018-05-13T01:54:55.546Z,17.30
2018-05-13T01:57:23.157Z,17.30
2018-05-13T01:59:50.656Z,17.30
2018-05-13T02:02:18.222Z,17.30
2018-05-13T02:04:45.840Z,17.20
2018-05-13T02:07:13.473Z,17.10
2018-05-13T02:09:40.993Z,16.90
2018-05-13T02:12:08.538Z,16.90
2018-05-13T02:14:36.164Z,16.80
2018-05-13T02:17:03.700Z,16.80
2018-05-13T02:19:31.224Z,16.70
2018-05-13T02:21:58.810Z,16.70
2018-05-13T02:24:27.156Z,16.70
2018-05-13T02:26:54.674Z,16.70
2018-05-13T02:29:22.331Z,16.60
2018-05-13T02:31:49.846Z,16.70
2018-05-13T02:34:18.177Z,16.70
2018-05-13T02:36:45.685Z,16.70
2018-05-13T02:39:13.997Z,16.70
2018-05-13T02:41:41.516Z,16.70
2018-05-13T02:44:10.038Z,16.90
2018-05-13T02:46:37.592Z,16.80
2018-05-13T02:49:05.152Z,16.70
2018-05-13T02:51:32.686Z,16.70
2018-05-13T02:54:01.188Z,17.10
2018-05-13T02:56:28.812Z,17.00
2018-05-13T02:58:57.105Z,16.80
2018-05-13T03:01:24.640Z,16.80
2018-05-13T03:03:52.924Z,16.60
2018-05-13T03:06:21.231Z,16.60
2018-05-13T03:08:48.885Z,16.60
2018-05-13T03:11:16.452Z,16.60
2018-05-13T03:13:44.057Z,16.70
2018-05-13T03:16:12.432Z,16.50
2018-05-13T03:18:41.613Z,16.60
2018-05-13T03:21:09.173Z,16.60
2018-05-13T03:23:36.706Z,16.80
2018-05-13T03:26:04.256Z,16.70
2018-05-13T03:28:31.773Z,16.50
2018-05-13T03:31:00.100Z,16.40
2018-05-13T03:33:27.608Z,16.30
2018-05-13T03:35:55.888Z,16.30
2018-05-13T03:38:24.304Z,16.20
2018-05-13T03:40:51.866Z,16.20
2018-05-13T03:43:19.397Z,16.40
2018-05-13T03:45:47.076Z,16.50
2018-05-13T03:48:14.630Z,16.30
2018-05-13T03:50:42.301Z,16.30
2018-05-13T03:53:09.833Z,16.30
2018-05-13T03:55:37.410Z,16.20
2018-05-13T03:58:04.970Z,16.40
2018-05-13T04:00:32.505Z,16.60
2018-05-13T04:03:00.116Z,16.40
2018-05-13T04:05:27.747Z,16.10
2018-05-13T04:11:19.925Z,16.00
2018-05-13T04:13:59.123Z,16.00
2018-05-13T04:16:26.793Z,16.00
2018-05-13T04:18:54.332Z,15.90
2018-05-13T04:21:21.940Z,16.00
2018-05-13T04:23:49.469Z,16.30
2018-05-13T04:26:16.993Z,16.20
2018-05-13T04:28:45.451Z,16.10
2018-05-13T04:31:13.140Z,16.10
2018-05-13T04:33:40.813Z,16.20
2018-05-13T04:36:08.332Z,16.20
2018-05-13T04:38:35.944Z,16.30
2018-05-13T04:41:03.498Z,16.40
2018-05-13T04:43:31.033Z,16.30
2018-05-13T04:45:58.621Z,16.30
2018-05-13T04:48:26.192Z,16.40
2018-05-13T04:50:53.708Z,16.30
2018-05-13T04:53:21.272Z,16.20
2018-05-13T04:55:48.804Z,16.10
2018-05-13T04:58:17.080Z,16.10
2018-05-13T05:00:45.389Z,16.10
2018-05-13T05:03:12.953Z,16.10
2018-05-13T05:05:40.477Z,16.00
2018-05-13T05:08:08.889Z,15.90
2018-05-13T05:10:36.446Z,15.90
2018-05-13T05:13:03.949Z,15.90
2018-05-13T05:15:31.664Z,15.80
2018-05-13T05:17:59.182Z,16.00
2018-05-13T05:20:27.617Z,16.00
2018-05-13T05:22:55.262Z,16.00
2018-05-13T05:25:22.812Z,15.90
2018-05-13T05:27:50.534Z,16.00
2018-05-13T05:30:18.017Z,16.00
2018-05-13T05:32:45.561Z,16.00
2018-05-13T05:35:13.844Z,16.10
2018-05-13T05:37:41.391Z,16.10
2018-05-13T05:40:09.707Z,16.20
2018-05-13T05:42:37.253Z,16.20
2018-05-13T05:45:04.766Z,16.50
2018-05-13T05:47:32.324Z,16.50
2018-05-13T05:49:59.837Z,16.30
2018-05-13T05:52:27.391Z,16.40
2018-05-13T05:54:54.921Z,16.60
2018-05-13T05:57:22.508Z,16.70
2018-05-13T05:59:50.170Z,16.80
2018-05-13T06:02:17.805Z,16.70
2018-05-13T06:04:45.353Z,16.80
2018-05-13T06:07:13.642Z,17.10
2018-05-13T06:09:41.221Z,17.10
2018-05-13T06:12:08.947Z,16.80
2018-05-13T06:14:37.257Z,16.40
2018-05-13T06:17:04.821Z,16.50
2018-05-13T06:19:32.461Z,16.50
2018-05-13T06:22:00.012Z,17.10
2018-05-13T06:24:27.556Z,17.90
2018-05-13T06:26:55.836Z,18.00
2018-05-13T06:29:24.140Z,17.90
2018-05-13T06:31:51.701Z,17.90
2018-05-13T06:34:19.269Z,17.70
2018-05-13T06:36:46.797Z,17.50
2018-05-13T06:39:14.492Z,17.60
2018-05-13T06:41:42.040Z,17.60
2018-05-13T06:44:09.592Z,18.00
2018-05-13T06:46:37.216Z,17.80
2018-05-13T06:49:05.653Z,17.90
2018-05-13T06:51:33.349Z,17.80
2018-05-13T06:54:01.552Z,18.40
2018-05-13T06:56:29.100Z,18.40
2018-05-13T06:58:56.617Z,18.20
2018-05-13T07:01:24.167Z,18.70
2018-05-13T07:03:51.832Z,18.50
2018-05-13T07:06:20.140Z,18.00
2018-05-13T07:08:48.424Z,17.90
2018-05-13T07:11:15.996Z,17.90
2018-05-13T07:13:43.522Z,17.80
2018-05-13T07:16:11.921Z,17.90
2018-05-13T07:18:39.456Z,17.90
2018-05-13T07:21:07.917Z,17.80
2018-05-13T07:23:35.705Z,17.80
2018-05-13T07:26:03.993Z,18.60
2018-05-13T07:28:32.310Z,18.10
2018-05-13T07:30:59.836Z,18.10
2018-05-13T07:33:27.397Z,17.90
2018-05-13T07:35:54.929Z,17.70
2018-05-13T07:38:23.346Z,18.00
2018-05-13T07:40:50.910Z,17.90
2018-05-13T07:43:18.464Z,18.00
2018-05-13T07:45:46.126Z,18.00
2018-05-13T07:48:13.653Z,18.10
2018-05-13T07:50:41.985Z,18.00
2018-05-13T07:53:09.625Z,17.90
2018-05-13T07:55:37.205Z,17.60
2018-05-13T07:58:04.753Z,18.00
2018-05-13T08:00:32.379Z,17.90
2018-05-13T08:03:00.023Z,18.10
2018-05-13T08:05:28.535Z,17.90
2018-05-13T08:07:56.229Z,17.80
2018-05-13T08:10:23.855Z,18.00
2018-05-13T08:12:51.403Z,18.10
2018-05-13T08:15:18.940Z,18.20
2018-05-13T08:17:47.230Z,18.40
2018-05-13T08:20:14.997Z,18.40
2018-05-13T08:22:43.369Z,19.20
2018-05-13T08:25:11.046Z,19.20
2018-05-13T08:27:38.540Z,18.80
2018-05-13T08:30:06.092Z,18.30
2018-05-13T08:32:33.624Z,18.20
2018-05-13T08:35:01.201Z,18.30
2018-05-13T08:37:28.735Z,18.00
2018-05-13T08:39:56.300Z,17.70
2018-05-13T08:42:23.816Z,17.90
2018-05-13T08:44:52.228Z,17.90
2018-05-13T08:47:19.774Z,17.90
2018-05-13T08:49:47.342Z,18.10
2018-05-13T08:52:14.855Z,18.40
2018-05-13T08:54:42.401Z,18.40
2018-05-13T08:57:09.929Z,18.70
2018-05-13T08:59:37.527Z,18.20
2018-05-13T09:02:05.062Z,18.00
2018-05-13T09:04:32.719Z,18.20
2018-05-13T09:07:00.274Z,17.70
2018-05-13T09:09:27.869Z,17.60
2018-05-13T09:11:56.162Z,17.90
2018-05-13T09:14:24.533Z,18.00
2018-05-13T09:16:52.101Z,18.00
2018-05-13T09:19:19.670Z,18.30
2018-05-13T09:21:47.238Z,18.40
2018-05-13T09:24:14.774Z,18.40
2018-05-13T09:26:42.303Z,18.20
2018-05-13T09:29:09.958Z,18.00
2018-05-13T09:31:37.473Z,17.70
2018-05-13T09:34:05.132Z,17.60
2018-05-13T09:36:32.638Z,17.70
2018-05-13T09:39:00.221Z,17.60
2018-05-13T09:41:28.518Z,17.10
2018-05-13T09:43:56.060Z,17.10
2018-05-13T09:46:23.617Z,16.90
2018-05-13T09:48:52.022Z,17.20
2018-05-13T09:51:19.606Z,17.20
2018-05-13T09:53:47.084Z,17.40
2018-05-13T09:56:15.425Z,17.60
2018-05-13T09:58:42.949Z,17.60
2018-05-13T10:01:10.525Z,17.20
2018-05-13T10:03:38.208Z,17.10
2018-05-13T10:06:05.754Z,17.00
2018-05-13T10:08:33.268Z,16.90
2018-05-13T10:11:00.838Z,16.70
2018-05-13T10:13:28.416Z,16.60
2018-05-13T10:15:56.087Z,16.80
2018-05-13T10:18:23.636Z,16.80
2018-05-13T10:20:51.220Z,16.80
2018-05-13T10:23:18.797Z,16.80
2018-05-13T10:25:46.356Z,16.90
2018-05-13T10:28:13.908Z,17.20
2018-05-13T10:30:41.577Z,16.80
2018-05-13T10:33:09.116Z,16.70
2018-05-13T10:35:38.166Z,16.80
2018-05-13T10:38:05.821Z,16.80
2018-05-13T10:40:33.292Z,16.70
2018-05-13T10:43:00.954Z,16.70
2018-05-13T10:45:28.510Z,16.90
2018-05-13T10:47:56.069Z,17.00
2018-05-13T10:50:23.630Z,16.90
2018-05-13T10:52:51.321Z,17.10
2018-05-13T10:55:18.850Z,17.20
2018-05-13T10:57:46.458Z,17.20
2018-05-13T11:00:14.066Z,17.10
2018-05-13T11:02:41.658Z,16.90
2018-05-13T11:05:09.246Z,16.80
2018-05-13T11:07:36.772Z,16.80
2018-05-13T11:10:04.314Z,17.10
2018-05-13T11:12:32.113Z,17.40
2018-05-13T11:14:59.687Z,17.30
2018-05-13T11:17:28.099Z,17.40
2018-05-13T11:19:55.637Z,17.40
2018-05-13T11:22:23.188Z,17.60
2018-05-13T11:24:51.497Z,17.20
2018-05-13T11:27:19.074Z,17.20
2018-05-13T11:29:46.601Z,17.20
2018-05-13T11:32:14.165Z,16.90
2018-05-13T11:34:41.824Z,16.90
2018-05-13T11:37:09.484Z,17.10
2018-05-13T11:39:37.042Z,17.00
2018-05-13T11:42:04.579Z,16.90
2018-05-13T11:44:32.133Z,17.10
2018-05-13T11:46:59.830Z,17.00
2018-05-13T11:49:27.387Z,17.40
2018-05-13T11:51:54.952Z,17.60
2018-05-13T11:54:22.509Z,17.20
2018-05-13T11:56:50.066Z,16.90
2018-05-13T11:59:17.597Z,16.90
2018-05-13T12:01:45.161Z,17.00
2018-05-13T12:04:12.753Z,16.90
2018-05-13T12:06:40.285Z,17.10
2018-05-13T12:09:07.961Z,17.00
2018-05-13T12:11:35.603Z,16.90
2018-05-13T12:14:03.165Z,16.80
2018-05-13T12:16:30.752Z,17.30
2018-05-13T12:18:58.384Z,17.60
2018-05-13T12:21:25.933Z,17.50
2018-05-13T12:23:53.468Z,17.80
2018-05-13T12:26:21.804Z,17.80
2018-05-13T12:28:49.405Z,17.70
2018-05-13T12:31:17.065Z,17.40
2018-05-13T12:33:44.610Z,17.70
2018-05-13T12:36:12.204Z,17.70
2018-05-13T12:38:39.736Z,17.50
2018-05-13T12:41:08.042Z,17.90
2018-05-13T12:43:35.703Z,17.80
2018-05-13T12:46:03.292Z,17.70
2018-05-13T12:48:31.127Z,17.50
2018-05-13T12:50:58.668Z,17.60
2018-05-13T12:53:26.410Z,17.90
2018-05-13T12:55:54.822Z,17.80
2018-05-13T12:58:22.460Z,17.80
2018-05-13T13:00:50.042Z,17.50
2018-05-13T13:03:17.593Z,17.90
2018-05-13T13:05:45.114Z,17.60
2018-05-13T13:08:13.452Z,17.70
2018-05-13T13:10:41.096Z,17.70
2018-05-13T13:13:08.663Z,17.60
2018-05-13T13:15:36.209Z,17.50
2018-05-13T13:18:03.937Z,17.50
2018-05-13T13:20:32.277Z,17.60
2018-05-13T13:22:59.795Z,17.60
2018-05-13T13:25:27.345Z,17.80
2018-05-13T13:27:55.023Z,18.00
2018-05-13T13:30:22.689Z,17.60
2018-05-13T13:32:50.256Z,17.90
2018-05-13T13:35:18.457Z,17.90
2018-05-13T13:37:45.978Z,17.80
2018-05-13T13:40:13.533Z,17.70
2018-05-13T13:42:41.121Z,17.50
2018-05-13T13:45:08.751Z,17.30
2018-05-13T13:47:36.411Z,17.20
2018-05-13T13:50:03.992Z,17.20
2018-05-13T13:52:31.610Z,17.30
2018-05-13T13:54:59.188Z,17.30
2018-05-13T13:57:26.737Z,17.00
2018-05-13T13:59:54.509Z,17.50
2018-05-13T14:02:22.168Z,17.20
2018-05-13T14:04:49.701Z,17.20
2018-05-13T14:07:18.057Z,16.90
2018-05-13T14:09:45.694Z,16.90
2018-05-13T14:12:13.323Z,17.00
2018-05-13T14:14:40.879Z,17.00
2018-05-13T14:17:08.437Z,17.20
2018-05-13T14:19:36.142Z,17.00
2018-05-13T14:22:03.809Z,16.60
2018-05-13T14:24:31.333Z,16.60
2018-05-13T14:26:58.947Z,16.60
2018-05-13T14:29:26.456Z,16.70
2018-05-13T14:31:54.101Z,16.50
2018-05-13T14:34:21.693Z,16.40
2018-05-13T14:36:49.389Z,16.30
2018-05-13T14:39:17.701Z,16.50
2018-05-13T14:41:45.244Z,16.50
2018-05-13T14:44:13.585Z,16.80
2018-05-13T14:46:42.022Z,16.90
2018-05-13T14:49:09.581Z,16.90
2018-05-13T14:51:37.113Z,16.30
2018-05-13T14:54:04.693Z,16.40
2018-05-13T14:56:32.250Z,16.60
2018-05-13T14:58:59.833Z,16.60
2018-05-13T15:01:27.537Z,16.50
2018-05-13T15:03:55.129Z,16.50
2018-05-13T15:06:22.698Z,16.50
2018-05-13T15:08:50.211Z,16.70
2018-05-13T15:11:17.794Z,16.50
2018-05-13T15:13:45.331Z,16.80
2018-05-13T15:16:12.904Z,16.60
2018-05-13T15:18:40.429Z,16.30
2018-05-13T15:21:09.047Z,16.20
2018-05-13T15:23:36.705Z,16.20
2018-05-13T15:26:04.281Z,16.10
2018-05-13T15:28:31.833Z,16.30
2018-05-13T15:30:59.385Z,16.70
2018-05-13T15:33:27.040Z,16.60
2018-05-13T15:35:54.561Z,16.40
2018-05-13T15:38:22.262Z,16.40
2018-05-13T15:40:49.774Z,16.40
2018-05-13T15:43:18.380Z,16.30
2018-05-13T15:45:45.958Z,16.30
2018-05-13T15:48:13.542Z,16.20
2018-05-13T15:50:41.072Z,16.30
2018-05-13T15:53:08.697Z,16.10
2018-05-13T15:55:36.304Z,15.90
2018-05-13T15:58:03.873Z,15.70
2018-05-13T16:00:31.420Z,15.50
2018-05-13T16:02:59.077Z,15.40
2018-05-13T16:05:26.716Z,15.30
2018-05-13T16:07:54.287Z,15.30
2018-05-13T16:10:21.923Z,15.30
2018-05-13T16:12:50.349Z,15.40
2018-05-13T16:15:17.984Z,15.40
2018-05-13T16:17:45.553Z,15.40
2018-05-13T16:20:13.157Z,15.40
2018-05-13T16:22:40.682Z,15.50
2018-05-13T16:25:08.249Z,15.60
2018-05-13T16:27:35.923Z,15.50
2018-05-13T16:30:03.532Z,15.60
2018-05-13T16:32:31.062Z,15.50
2018-05-13T16:34:59.550Z,15.50
2018-05-13T16:37:27.869Z,15.50
2018-05-13T16:39:55.468Z,15.50
2018-05-13T16:42:23.008Z,15.50
2018-05-13T16:44:50.702Z,15.40
2018-05-13T16:47:18.398Z,15.40
2018-05-13T16:49:46.146Z,15.40
2018-05-13T16:52:13.685Z,15.40
2018-05-13T16:54:41.209Z,15.50
2018-05-13T16:57:08.768Z,15.60
2018-05-13T16:59:36.316Z,15.50
2018-05-13T17:02:03.944Z,15.50
2018-05-13T17:04:31.584Z,15.70
2018-05-13T17:06:59.133Z,15.80
2018-05-13T17:09:26.774Z,15.80
2018-05-13T17:11:54.384Z,15.60
2018-05-13T17:14:21.902Z,15.60
2018-05-13T17:16:50.335Z,15.40
2018-05-13T17:19:17.903Z,15.40
2018-05-13T17:21:45.511Z,15.50
2018-05-13T17:24:13.074Z,15.50
2018-05-13T17:26:40.692Z,15.40
2018-05-13T17:29:08.249Z,15.60
2018-05-13T17:31:35.966Z,15.60
2018-05-13T17:34:03.644Z,15.30
2018-05-13T17:36:31.294Z,15.30
2018-05-13T17:38:58.808Z,15.30
2018-05-13T17:41:26.382Z,15.30
2018-05-13T17:43:54.688Z,15.10
2018-05-13T17:46:22.253Z,15.10
2018-05-13T17:48:49.787Z,15.00
2018-05-13T17:51:17.416Z,15.00
2018-05-13T17:53:45.923Z,14.80
2018-05-13T17:56:13.479Z,14.80
2018-05-13T17:58:41.873Z,14.80
2018-05-13T18:01:09.475Z,14.80
2018-05-13T18:03:37.065Z,14.70
2018-05-13T18:06:05.471Z,14.70
2018-05-13T18:08:33.033Z,14.60
2018-05-13T18:11:00.593Z,14.60
2018-05-13T18:13:29.124Z,14.70
2018-05-13T18:15:56.684Z,14.60
2018-05-13T18:18:24.226Z,14.60
2018-05-13T18:20:51.982Z,14.60
2018-05-13T18:23:19.549Z,14.60
2018-05-13T18:25:47.081Z,14.50
2018-05-13T18:28:14.638Z,14.50
2018-05-13T18:30:42.169Z,14.40
2018-05-13T18:33:09.747Z,14.40
2018-05-13T18:35:37.330Z,14.30
2018-05-13T18:38:06.437Z,14.20
2018-05-13T18:40:34.814Z,14.10
2018-05-13T18:43:02.360Z,14.00
2018-05-13T18:45:29.986Z,14.00
2018-05-13T18:47:57.520Z,14.00
2018-05-13T18:50:25.206Z,13.90
2018-05-13T18:52:52.809Z,13.80
2018-05-13T18:55:20.394Z,13.80
2018-05-13T18:57:48.706Z,13.90
2018-05-13T19:00:16.264Z,13.90
2018-05-13T19:02:43.825Z,13.80
2018-05-13T19:05:11.546Z,13.70
2018-05-13T19:07:40.060Z,13.70
2018-05-13T19:10:07.754Z,13.60
2018-05-13T19:12:35.289Z,13.50
2018-05-13T19:15:02.951Z,13.40
2018-05-13T19:17:30.407Z,13.40
2018-05-13T19:19:57.968Z,13.40
2018-05-13T19:22:25.508Z,13.30
2018-05-13T19:24:53.173Z,13.20
2018-05-13T19:27:20.688Z,13.10
2018-05-13T19:29:49.068Z,13.00
2018-05-13T19:32:17.381Z,13.10
2018-05-13T19:34:44.980Z,13.10
2018-05-13T19:37:12.600Z,13.00
2018-05-13T19:39:40.114Z,12.90
2018-05-13T19:42:08.450Z,12.90
2018-05-13T19:44:36.145Z,12.90
2018-05-13T19:47:04.472Z,12.80
2018-05-13T19:49:31.997Z,12.80
2018-05-13T19:51:59.579Z,12.80
2018-05-13T19:54:27.198Z,12.80
2018-05-13T19:56:54.757Z,13.00
2018-05-13T19:59:23.087Z,13.20
2018-05-13T20:01:50.709Z,13.20
2018-05-13T20:04:19.195Z,12.80
2018-05-13T20:06:47.891Z,12.80
2018-05-13T20:09:15.467Z,12.70
2018-05-13T20:11:43.102Z,12.70
2018-05-13T20:14:10.784Z,12.60
2018-05-13T20:16:38.301Z,12.70
2018-05-13T20:19:06.688Z,12.70
2018-05-13T20:21:35.056Z,12.70
2018-05-13T20:24:02.600Z,12.70
2018-05-13T20:26:30.148Z,12.80
2018-05-13T20:28:57.728Z,12.90
2018-05-13T20:31:26.029Z,13.10
2018-05-13T20:33:53.572Z,13.10
2018-05-13T20:36:21.202Z,13.10
2018-05-13T20:38:48.845Z,13.30
2018-05-13T20:41:16.380Z,13.30
2018-05-13T20:43:43.938Z,13.10
2018-05-13T20:46:11.473Z,13.30
2018-05-13T20:48:39.154Z,13.20
2018-05-13T20:51:06.705Z,13.10
2018-05-13T20:53:34.241Z,13.20
2018-05-13T20:56:02.803Z,13.40
2018-05-13T20:58:30.277Z,13.40
2018-05-13T21:00:58.621Z,13.60
2018-05-13T21:03:26.169Z,13.60
2018-05-13T21:05:53.787Z,13.20
2018-05-13T21:11:20.393Z,13.20
2018-05-13T21:13:47.982Z,13.10
2018-05-13T21:16:16.362Z,12.90
2018-05-13T21:18:43.961Z,13.10
2018-05-13T21:21:11.948Z,13.10
2018-05-13T21:23:40.417Z,13.00
2018-05-13T21:26:08.667Z,12.90
2018-05-13T21:28:36.288Z,12.90
2018-05-13T21:31:04.254Z,12.90
2018-05-13T21:33:31.808Z,13.00
2018-05-13T21:36:00.216Z,13.00
2018-05-13T21:38:29.061Z,12.90
2018-05-13T21:40:56.605Z,12.90
2018-05-13T21:43:24.911Z,12.90
2018-05-13T21:45:52.483Z,12.80
2018-05-13T21:48:20.941Z,12.80
2018-05-13T21:50:48.558Z,12.80
2018-05-13T21:53:16.265Z,12.80
2018-05-13T21:55:43.802Z,12.80
2018-05-13T21:58:11.397Z,12.90
2018-05-13T22:03:13.319Z,12.80
2018-05-13T22:05:41.032Z,12.80
2018-05-13T22:08:08.850Z,12.80
2018-05-13T22:10:36.954Z,12.90
2018-05-13T22:13:05.290Z,12.80
2018-05-13T22:15:32.827Z,12.90
2018-05-13T22:18:00.857Z,12.80
2018-05-13T22:20:28.435Z,12.80
2018-05-13T22:22:56.885Z,12.90
2018-05-13T22:25:24.465Z,12.80
2018-05-13T22:27:51.989Z,13.10
2018-05-13T22:30:19.533Z,13.30
2018-05-13T22:32:47.370Z,13.40
2018-05-13T22:35:14.946Z,13.40
2018-05-13T22:37:42.697Z,13.30
2018-05-13T22:40:10.271Z,13.10
2018-05-13T22:42:38.705Z,13.30
2018-05-13T22:45:06.297Z,13.40
2018-05-13T22:47:33.830Z,13.20
2018-05-13T22:50:02.495Z,13.20
2018-05-13T22:52:31.573Z,13.30
2018-05-13T22:54:59.537Z,13.40
2018-05-13T22:57:27.069Z,13.30
2018-05-13T22:59:55.365Z,13.10
2018-05-13T23:02:22.930Z,12.90
2018-05-13T23:04:50.464Z,13.20
2018-05-13T23:07:18.021Z,13.30
2018-05-13T23:09:45.572Z,13.40
2018-05-13T23:12:13.273Z,13.50
2018-05-13T23:14:42.307Z,13.50
2018-05-13T23:17:09.866Z,13.40
2018-05-13T23:19:37.857Z,13.40
2018-05-13T23:22:05.409Z,13.40
2018-05-13T23:24:32.929Z,13.30
2018-05-13T23:27:01.262Z,13.40
2018-05-13T23:29:28.776Z,13.40
2018-05-13T23:31:57.159Z,13.40
2018-05-13T23:34:25.510Z,13.40
2018-05-13T23:36:53.400Z,13.40
2018-05-13T23:39:20.999Z,13.30
2018-05-13T23:41:49.392Z,13.30
2018-05-13T23:44:17.022Z,13.40
2018-05-13T23:46:44.630Z,13.40
2018-05-13T23:49:12.963Z,13.40
2018-05-13T23:51:40.480Z,13.40
2018-05-13T23:54:08.813Z,13.40
2018-05-13T23:56:36.334Z,13.20
2018-05-13T23:59:03.896Z,13.20
